createdAt,value
2023-01-09T00:00:53.249Z,2.40
2023-01-09T00:03:19.603Z,2.20
2023-01-09T00:05:46.198Z,2.30
2023-01-09T00:08:12.663Z,2.63
2023-01-09T00:10:39.070Z,2.30
2023-01-09T00:13:05.509Z,2.17
2023-01-09T00:15:31.976Z,2.60
2023-01-09T00:17:58.344Z,2.72
2023-01-09T00:20:24.849Z,2.45
2023-01-09T00:22:51.279Z,2.50
2023-01-09T00:25:17.721Z,2.70
2023-01-09T00:27:44.156Z,2.38
2023-01-09T00:30:11.402Z,2.83
2023-01-09T00:32:37.755Z,2.30
2023-01-09T00:35:04.573Z,2.17
2023-01-09T00:37:31.004Z,2.65
2023-01-09T00:39:57.351Z,2.40
2023-01-09T00:42:28.294Z,2.40
2023-01-09T00:44:59.463Z,2.53
2023-01-09T00:47:40.405Z,2.30
2023-01-09T00:50:30.576Z,2.60
2023-01-09T00:53:01.465Z,2.72
2023-01-09T00:55:28.097Z,2.90
2023-01-09T00:57:55.689Z,2.58
2023-01-09T01:00:22.465Z,2.65
2023-01-09T01:02:48.888Z,2.20
2023-01-09T01:05:34.075Z,2.55
2023-01-09T01:08:00.508Z,2.35
2023-01-09T01:10:27.760Z,2.70
2023-01-09T01:12:54.191Z,2.50
2023-01-09T01:15:20.960Z,2.22
2023-01-09T01:17:47.934Z,2.88
2023-01-09T01:20:18.715Z,2.70
2023-01-09T01:22:45.141Z,2.40
2023-01-09T01:25:14.237Z,2.70
2023-01-09T01:27:41.271Z,2.53
2023-01-09T01:30:09.635Z,2.60
2023-01-09T01:32:36.296Z,2.55
2023-01-09T01:35:02.864Z,2.58
2023-01-09T01:37:29.327Z,2.50
2023-01-09T01:39:55.818Z,2.83
2023-01-09T01:42:22.561Z,2.97
2023-01-09T01:45:07.717Z,2.22
2023-01-09T01:47:40.209Z,2.75
2023-01-09T01:50:22.743Z,3.15
2023-01-09T01:52:56.318Z,2.90
2023-01-09T01:55:23.324Z,2.63
2023-01-09T01:57:54.210Z,2.60
2023-01-09T02:00:27.141Z,2.60
2023-01-09T02:02:53.681Z,2.53
2023-01-09T02:05:20.245Z,2.65
2023-01-09T02:07:46.796Z,2.70
2023-01-09T02:10:13.228Z,2.63
2023-01-09T02:12:39.581Z,2.78
2023-01-09T02:15:10.660Z,2.55
2023-01-09T02:17:56.043Z,3.03
2023-01-09T02:20:32.557Z,2.40
2023-01-09T02:23:42.955Z,2.35
2023-01-09T02:26:35.281Z,2.63
2023-01-09T02:29:10.346Z,2.17
2023-01-09T02:31:43.694Z,2.50
2023-01-09T02:34:43.823Z,2.60
2023-01-09T02:37:39.839Z,2.78
2023-01-09T02:40:20.831Z,2.65
2023-01-09T02:42:48.386Z,2.70
2023-01-09T02:45:14.820Z,2.50
2023-01-09T02:47:46.378Z,2.70
2023-01-09T02:50:23.450Z,3.08
2023-01-09T02:53:11.281Z,2.40
2023-01-09T02:55:58.827Z,2.38
2023-01-09T02:59:07.229Z,2.42
2023-01-09T03:02:05.830Z,2.50
2023-01-09T03:04:53.682Z,2.90
2023-01-09T03:07:33.010Z,2.67
2023-01-09T03:10:08.585Z,2.30
2023-01-09T03:12:36.729Z,2.47
2023-01-09T03:15:07.081Z,2.40
2023-01-09T03:17:43.935Z,2.70
2023-01-09T03:20:13.516Z,2.63
2023-01-09T03:22:45.828Z,2.30
2023-01-09T03:25:13.088Z,2.50
2023-01-09T03:27:39.811Z,2.70
2023-01-09T03:30:06.803Z,2.80
2023-01-09T03:32:33.433Z,2.30
2023-01-09T03:35:01.762Z,2.30
2023-01-09T03:37:28.105Z,2.38
2023-01-09T03:39:54.603Z,2.45
2023-01-09T03:42:20.938Z,2.55
2023-01-09T03:44:47.491Z,2.60
2023-01-09T03:47:13.947Z,2.10
2023-01-09T03:49:40.543Z,2.45
2023-01-09T03:52:07.078Z,2.30
2023-01-09T03:54:33.424Z,2.17
2023-01-09T03:56:59.849Z,2.30
2023-01-09T03:59:26.411Z,2.30
2023-01-09T04:01:52.935Z,2.28
2023-01-09T04:04:19.389Z,2.38
2023-01-09T04:06:45.755Z,2.22
2023-01-09T04:09:12.281Z,2.20
2023-01-09T04:11:38.655Z,2.80
2023-01-09T04:14:05.068Z,2.30
2023-01-09T04:16:31.489Z,2.67
2023-01-09T04:18:57.971Z,2.58
2023-01-09T04:21:24.346Z,2.60
2023-01-09T04:23:50.809Z,2.80
2023-01-09T04:26:17.280Z,2.80
2023-01-09T04:28:43.628Z,2.72
2023-01-09T04:31:10.102Z,3.08
2023-01-09T04:33:36.752Z,2.80
2023-01-09T04:36:03.515Z,2.97
2023-01-09T04:38:29.970Z,2.47
2023-01-09T04:40:56.340Z,2.75
2023-01-09T04:43:22.836Z,2.80
2023-01-09T04:45:49.220Z,2.65
2023-01-09T04:48:15.977Z,2.70
2023-01-09T04:50:42.343Z,3.25
2023-01-09T04:53:08.932Z,2.70
2023-01-09T04:55:35.409Z,3.10
2023-01-09T04:58:01.774Z,2.80
2023-01-09T05:00:28.276Z,3.03
2023-01-09T05:02:54.964Z,3.05
2023-01-09T05:05:21.389Z,3.20
2023-01-09T05:07:47.751Z,2.70
2023-01-09T05:10:14.237Z,2.85
2023-01-09T05:12:40.736Z,2.80
2023-01-09T05:15:08.322Z,2.28
2023-01-09T05:17:34.976Z,2.80
2023-01-09T05:20:01.512Z,3.17
2023-01-09T05:22:28.107Z,3.28
2023-01-09T05:24:54.670Z,2.95
2023-01-09T05:27:23.417Z,3.10
2023-01-09T05:29:49.758Z,2.92
2023-01-09T05:32:16.152Z,3.05
2023-01-09T05:34:42.546Z,3.35
2023-01-09T05:37:08.908Z,3.05
2023-01-09T05:39:35.415Z,3.40
2023-01-09T05:42:01.927Z,3.38
2023-01-09T05:44:28.355Z,2.97
2023-01-09T05:46:54.792Z,2.75
2023-01-09T05:49:21.138Z,3.10
2023-01-09T05:51:47.719Z,2.90
2023-01-09T05:54:14.059Z,3.08
2023-01-09T05:56:40.574Z,3.00
2023-01-09T05:59:07.029Z,2.92
2023-01-09T06:01:33.459Z,3.33
2023-01-09T06:04:03.116Z,3.00
2023-01-09T06:06:29.670Z,3.20
2023-01-09T06:08:56.110Z,3.20
2023-01-09T06:11:22.628Z,3.40
2023-01-09T06:13:48.986Z,3.03
2023-01-09T06:16:15.862Z,3.20
2023-01-09T06:18:42.224Z,3.30
2023-01-09T06:21:08.594Z,3.40
2023-01-09T06:23:35.135Z,2.83
2023-01-09T06:26:01.610Z,2.83
2023-01-09T06:28:28.100Z,3.35
2023-01-09T06:30:54.520Z,3.50
2023-01-09T06:33:20.960Z,3.20
2023-01-09T06:35:47.464Z,3.30
2023-01-09T06:38:13.918Z,3.42
2023-01-09T06:40:40.358Z,3.30
2023-01-09T06:43:06.783Z,3.88
2023-01-09T06:45:33.537Z,3.67
2023-01-09T06:47:59.923Z,3.40
2023-01-09T06:50:26.275Z,3.47
2023-01-09T06:52:52.928Z,3.40
2023-01-09T06:55:19.398Z,3.78
2023-01-09T06:57:45.769Z,4.20
2023-01-09T07:00:12.647Z,3.63
2023-01-09T07:02:39.078Z,3.40
2023-01-09T07:05:07.885Z,4.07
2023-01-09T07:07:34.583Z,4.15
2023-01-09T07:10:00.968Z,3.50
2023-01-09T07:12:28.294Z,4.13
2023-01-09T07:14:57.428Z,3.92
2023-01-09T07:17:24.075Z,3.92
2023-01-09T07:19:50.454Z,3.60
2023-01-09T07:22:17.512Z,3.50
2023-01-09T07:24:44.495Z,4.07
2023-01-09T07:27:11.712Z,4.00
2023-01-09T07:29:38.138Z,3.92
2023-01-09T07:32:05.111Z,4.18
2023-01-09T07:34:31.527Z,4.95
2023-01-09T07:36:57.974Z,5.07
2023-01-09T07:39:24.352Z,5.47
2023-01-09T07:41:50.855Z,5.55
2023-01-09T07:44:17.224Z,4.90
2023-01-09T07:46:43.696Z,5.93
2023-01-09T07:49:10.264Z,6.80
2023-01-09T07:51:39.132Z,6.32
2023-01-09T07:54:05.629Z,6.53
2023-01-09T07:56:31.969Z,6.28
2023-01-09T07:58:58.429Z,5.93
2023-01-09T08:01:25.036Z,7.00
2023-01-09T08:03:51.430Z,7.68
2023-01-09T08:06:17.805Z,9.25
2023-01-09T08:08:44.373Z,7.18
2023-01-09T08:11:10.938Z,8.65
2023-01-09T08:13:37.313Z,7.38
2023-01-09T08:16:03.994Z,8.98
2023-01-09T08:18:30.520Z,7.93
2023-01-09T08:20:56.899Z,7.30
2023-01-09T08:23:23.333Z,8.00
2023-01-09T08:25:49.895Z,8.32
2023-01-09T08:28:17.090Z,7.28
2023-01-09T08:30:43.597Z,7.35
2023-01-09T08:33:10.081Z,7.93
2023-01-09T08:35:37.097Z,7.97
2023-01-09T08:38:03.944Z,8.23
2023-01-09T08:40:30.499Z,8.40
2023-01-09T08:43:15.538Z,8.65
2023-01-09T08:46:00.311Z,9.02
2023-01-09T08:48:27.025Z,9.55
2023-01-09T08:50:54.229Z,8.57
2023-01-09T08:53:20.810Z,9.05
2023-01-09T08:55:47.247Z,8.85
2023-01-09T08:58:13.729Z,10.88
2023-01-09T09:00:40.239Z,9.00
2023-01-09T09:03:06.636Z,10.38
2023-01-09T09:05:33.088Z,10.70
2023-01-09T09:07:59.946Z,10.30
2023-01-09T09:10:29.458Z,10.45
2023-01-09T09:12:57.793Z,11.35
2023-01-09T09:15:26.252Z,11.07
2023-01-09T09:17:58.503Z,12.55
2023-01-09T09:20:28.045Z,11.05
2023-01-09T09:22:54.992Z,10.95
2023-01-09T09:25:21.876Z,11.10
2023-01-09T09:27:49.025Z,12.00
2023-01-09T09:30:17.615Z,11.52
2023-01-09T09:32:44.451Z,11.85
2023-01-09T09:35:11.884Z,12.05
2023-01-09T09:37:38.963Z,11.48
2023-01-09T09:40:17.985Z,11.25
2023-01-09T09:43:30.433Z,10.25
2023-01-09T09:46:08.464Z,9.18
2023-01-09T09:48:45.054Z,11.05
2023-01-09T09:51:25.762Z,11.07
2023-01-09T09:54:03.962Z,10.30
2023-01-09T09:56:35.280Z,9.82
2023-01-09T09:59:07.255Z,10.90
2023-01-09T10:01:40.170Z,9.80
2023-01-09T10:04:12.238Z,10.32
2023-01-09T10:06:48.382Z,10.70
2023-01-09T10:09:20.560Z,10.70
2023-01-09T10:11:55.889Z,8.82
2023-01-09T10:14:24.687Z,9.20
2023-01-09T10:17:19.009Z,9.20
2023-01-09T10:20:26.054Z,8.82
2023-01-09T10:23:27.510Z,7.45
2023-01-09T10:26:01.096Z,7.30
2023-01-09T10:29:05.081Z,7.93
2023-01-09T10:31:50.374Z,8.45
2023-01-09T10:34:39.116Z,8.98
2023-01-09T10:37:14.114Z,9.85
2023-01-09T10:39:57.741Z,11.18
2023-01-09T10:42:33.422Z,10.65
2023-01-09T10:45:07.929Z,12.20
2023-01-09T10:47:37.193Z,11.25
2023-01-09T10:50:28.084Z,10.43
2023-01-09T10:52:56.174Z,10.07
2023-01-09T10:55:44.586Z,9.60
2023-01-09T10:58:18.826Z,9.88
2023-01-09T11:00:47.539Z,10.38
2023-01-09T11:03:16.475Z,9.18
2023-01-09T11:05:44.413Z,9.00
2023-01-09T11:08:14.107Z,8.32
2023-01-09T11:10:55.606Z,8.38
2023-01-09T11:13:26.809Z,8.43
2023-01-09T11:16:05.737Z,8.10
2023-01-09T11:19:02.921Z,7.32
2023-01-09T11:21:41.723Z,7.22
2023-01-09T11:24:23.937Z,5.90
2023-01-09T11:27:12.689Z,5.57
2023-01-09T11:29:40.201Z,4.95
2023-01-09T11:32:20.480Z,4.90
2023-01-09T11:34:47.152Z,5.13
2023-01-09T11:37:23.439Z,4.75
2023-01-09T11:39:51.218Z,4.18
2023-01-09T11:42:44.432Z,5.15
2023-01-09T11:45:25.011Z,3.97
2023-01-09T11:47:51.442Z,4.00
2023-01-09T11:50:22.654Z,4.95
2023-01-09T11:53:16.488Z,4.43
2023-01-09T11:55:44.473Z,3.08
2023-01-09T11:58:16.615Z,3.83
2023-01-09T12:00:58.208Z,4.00
2023-01-09T12:03:50.190Z,3.92
2023-01-09T12:06:26.256Z,3.90
2023-01-09T12:09:03.073Z,4.43
2023-01-09T12:11:53.460Z,5.13
2023-01-09T12:14:32.932Z,5.15
2023-01-09T12:17:20.097Z,4.75
2023-01-09T12:20:04.575Z,6.25
2023-01-09T12:22:49.278Z,5.82
2023-01-09T12:25:29.508Z,6.57
2023-01-09T12:28:14.554Z,6.15
2023-01-09T12:31:10.537Z,6.07
2023-01-09T12:33:57.385Z,6.22
2023-01-09T12:37:05.409Z,5.78
2023-01-09T12:39:31.870Z,6.82
2023-01-09T12:42:11.626Z,5.43
2023-01-09T12:44:53.079Z,6.30
2023-01-09T12:47:55.429Z,6.20
2023-01-09T12:50:57.401Z,7.20
2023-01-09T12:53:27.243Z,6.50
2023-01-09T12:56:14.874Z,7.75
2023-01-09T12:58:44.699Z,7.22
2023-01-09T13:01:18.248Z,6.57
2023-01-09T13:04:13.987Z,7.00
2023-01-09T13:06:45.632Z,6.90
2023-01-09T13:09:47.487Z,7.90
2023-01-09T13:12:18.169Z,7.57
2023-01-09T13:14:51.410Z,8.35
2023-01-09T13:17:23.742Z,8.48
2023-01-09T13:19:50.286Z,8.07
2023-01-09T13:22:18.072Z,7.88
2023-01-09T13:25:06.283Z,8.23
2023-01-09T13:27:39.270Z,7.57
2023-01-09T13:30:29.240Z,8.23
2023-01-09T13:33:13.952Z,7.90
2023-01-09T13:35:55.844Z,7.38
2023-01-09T13:38:24.910Z,7.70
2023-01-09T13:41:30.066Z,8.20
2023-01-09T13:44:19.218Z,8.07
2023-01-09T13:46:48.561Z,7.75
2023-01-09T13:49:40.974Z,8.25
2023-01-09T13:52:36.780Z,8.25
2023-01-09T13:55:24.277Z,7.82
2023-01-09T13:58:06.007Z,7.57
2023-01-09T14:00:35.834Z,7.95
2023-01-09T14:03:08.208Z,7.45
2023-01-09T14:05:34.614Z,8.18
2023-01-09T14:08:03.799Z,8.30
2023-01-09T14:10:51.964Z,7.60
2023-01-09T14:13:24.306Z,8.40
2023-01-09T14:15:52.394Z,7.57
2023-01-09T14:18:23.514Z,8.05
2023-01-09T14:20:57.771Z,8.20
2023-01-09T14:23:49.829Z,8.45
2023-01-09T14:26:23.560Z,8.55
2023-01-09T14:28:50.585Z,8.40
2023-01-09T14:31:31.976Z,8.32
2023-01-09T14:34:37.172Z,8.75
2023-01-09T14:37:04.517Z,9.43
2023-01-09T14:39:32.636Z,7.15
2023-01-09T14:42:07.777Z,6.18
2023-01-09T14:44:48.487Z,7.55
2023-01-09T14:47:21.510Z,7.10
2023-01-09T14:49:59.569Z,6.95
2023-01-09T14:52:35.184Z,6.55
2023-01-09T14:55:04.239Z,6.53
2023-01-09T14:57:34.065Z,7.03
2023-01-09T15:00:13.462Z,7.47
2023-01-09T15:02:41.321Z,7.30
2023-01-09T15:05:11.296Z,7.28
2023-01-09T15:07:44.504Z,8.13
2023-01-09T15:10:21.285Z,8.50
2023-01-09T15:12:50.275Z,8.30
2023-01-09T15:15:18.343Z,8.10
2023-01-09T15:18:06.597Z,8.50
2023-01-09T15:20:34.269Z,9.00
2023-01-09T15:23:04.076Z,7.93
2023-01-09T15:25:40.630Z,7.70
2023-01-09T15:28:25.086Z,8.02
2023-01-09T15:31:01.538Z,8.05
2023-01-09T15:33:28.356Z,8.65
2023-01-09T15:36:00.255Z,7.93
2023-01-09T15:38:28.419Z,8.48
2023-01-09T15:41:06.655Z,8.07
2023-01-09T15:43:34.823Z,8.27
2023-01-09T15:46:01.526Z,8.40
2023-01-09T15:48:33.942Z,7.75
2023-01-09T15:51:18.267Z,9.35
2023-01-09T15:53:47.032Z,8.27
2023-01-09T15:56:26.230Z,7.80
2023-01-09T15:58:54.537Z,7.82
2023-01-09T16:01:27.628Z,8.15
2023-01-09T16:04:04.949Z,11.88
2023-01-09T16:06:34.885Z,11.85
2023-01-09T16:09:01.949Z,13.10
2023-01-09T16:11:30.954Z,10.70
2023-01-09T16:14:09.956Z,9.50
2023-01-09T16:16:38.479Z,7.40
2023-01-09T16:19:05.000Z,7.15
2023-01-09T16:21:41.576Z,7.22
2023-01-09T16:24:13.898Z,7.72
2023-01-09T16:26:40.490Z,6.45
2023-01-09T16:29:27.317Z,7.03
2023-01-09T16:32:05.453Z,5.10
2023-01-09T16:34:36.809Z,5.22
2023-01-09T16:37:05.633Z,5.03
2023-01-09T16:39:32.238Z,5.30
2023-01-09T16:42:17.134Z,5.13
2023-01-09T16:44:43.575Z,5.85
2023-01-09T16:47:11.995Z,5.45
2023-01-09T16:49:38.650Z,4.93
2023-01-09T16:52:15.201Z,5.03
2023-01-09T16:54:43.620Z,5.00
2023-01-09T16:57:15.648Z,5.35
2023-01-09T16:59:42.200Z,5.25
2023-01-09T17:02:18.404Z,4.88
2023-01-09T17:04:44.928Z,5.68
2023-01-09T17:07:15.684Z,5.43
2023-01-09T17:09:43.145Z,6.05
2023-01-09T17:12:17.673Z,6.07
2023-01-09T17:14:44.165Z,5.75
2023-01-09T17:17:12.329Z,6.32
2023-01-09T17:19:38.772Z,5.72
2023-01-09T17:22:05.398Z,5.70
2023-01-09T17:24:50.871Z,5.88
2023-01-09T17:27:41.071Z,5.63
2023-01-09T17:30:18.396Z,6.18
2023-01-09T17:32:45.676Z,15.65
2023-01-09T17:35:13.328Z,19.58
2023-01-09T17:37:39.825Z,18.02
2023-01-09T17:40:19.167Z,8.48
2023-01-09T17:42:45.664Z,9.95
2023-01-09T17:45:12.163Z,9.15
2023-01-09T17:47:38.808Z,9.90
2023-01-09T17:50:05.911Z,9.55
2023-01-09T17:52:33.076Z,8.70
2023-01-09T17:55:05.138Z,9.63
2023-01-09T17:57:32.722Z,9.82
2023-01-09T17:59:59.155Z,9.60
2023-01-09T18:02:25.613Z,10.02
2023-01-09T18:04:52.070Z,9.90
2023-01-09T18:07:18.527Z,10.23
2023-01-09T18:09:45.146Z,10.30
2023-01-09T18:12:11.615Z,11.52
2023-01-09T18:14:38.869Z,10.23
2023-01-09T18:17:08.441Z,11.77
2023-01-09T18:19:34.902Z,11.30
2023-01-09T18:22:01.304Z,11.82
2023-01-09T18:24:27.694Z,12.50
2023-01-09T18:26:54.369Z,12.93
2023-01-09T18:29:21.369Z,12.60
2023-01-09T18:31:48.087Z,13.25
2023-01-09T18:34:14.632Z,12.88
2023-01-09T18:36:41.263Z,13.15
2023-01-09T18:39:08.698Z,12.45
2023-01-09T18:41:35.085Z,13.05
2023-01-09T18:44:02.210Z,13.98
2023-01-09T18:46:32.193Z,13.68
2023-01-09T18:49:01.429Z,12.98
2023-01-09T18:51:28.660Z,15.80
2023-01-09T18:53:56.090Z,14.93
2023-01-09T18:56:24.678Z,16.02
2023-01-09T18:58:55.992Z,16.77
2023-01-09T19:01:22.669Z,16.42
2023-01-09T19:03:49.578Z,16.50
2023-01-09T19:06:16.002Z,15.90
2023-01-09T19:08:42.409Z,16.48
2023-01-09T19:11:08.769Z,15.27
2023-01-09T19:13:36.823Z,15.30
2023-01-09T19:16:04.727Z,16.75
2023-01-09T19:18:36.553Z,16.48
2023-01-09T19:21:10.761Z,16.30
2023-01-09T19:23:37.308Z,16.30
2023-01-09T19:26:06.081Z,16.65
2023-01-09T19:28:32.520Z,17.55
2023-01-09T19:30:58.968Z,18.25
2023-01-09T19:33:25.504Z,18.27
2023-01-09T19:35:52.926Z,18.63
2023-01-09T19:38:23.324Z,19.13
2023-01-09T19:40:50.226Z,18.88
2023-01-09T19:43:25.602Z,20.27
2023-01-09T19:45:53.884Z,19.83
2023-01-09T19:48:21.615Z,19.67
2023-01-09T19:50:48.367Z,20.48
2023-01-09T19:53:15.188Z,19.33
2023-01-09T19:55:41.670Z,19.95
2023-01-09T19:58:08.182Z,21.40
2023-01-09T20:00:35.213Z,22.08
2023-01-09T20:03:02.137Z,20.77
2023-01-09T20:05:28.510Z,18.88
2023-01-09T20:07:55.339Z,20.27
2023-01-09T20:10:21.707Z,19.30
2023-01-09T20:12:48.214Z,21.27
2023-01-09T20:15:14.886Z,19.83
2023-01-09T20:17:42.107Z,23.27
2023-01-09T20:20:09.569Z,21.33
2023-01-09T20:22:35.982Z,22.50
2023-01-09T20:25:02.762Z,23.30
2023-01-09T20:27:29.180Z,22.70
2023-01-09T20:29:55.565Z,22.33
2023-01-09T20:32:22.073Z,24.80
2023-01-09T20:34:48.732Z,22.63
2023-01-09T20:37:15.124Z,23.45
2023-01-09T20:39:41.490Z,22.95
2023-01-09T20:42:08.496Z,21.55
2023-01-09T20:44:34.942Z,23.42
2023-01-09T20:47:01.325Z,23.15
2023-01-09T20:49:28.588Z,21.75
2023-01-09T20:51:55.042Z,21.05
2023-01-09T20:54:21.792Z,21.23
2023-01-09T20:56:48.187Z,21.27
2023-01-09T20:59:17.304Z,21.00
2023-01-09T21:01:43.883Z,22.02
2023-01-09T21:04:10.313Z,23.73
2023-01-09T21:06:37.516Z,21.83
2023-01-09T21:09:04.875Z,22.38
2023-01-09T21:11:33.497Z,22.00
2023-01-09T21:14:00.098Z,21.38
2023-01-09T21:16:27.162Z,22.77
2023-01-09T21:18:54.746Z,22.02
2023-01-09T21:21:27.259Z,22.75
2023-01-09T21:23:56.542Z,21.50
2023-01-09T21:26:27.274Z,21.35
2023-01-09T21:28:55.845Z,22.25
2023-01-09T21:31:25.552Z,21.65
2023-01-09T21:33:54.354Z,21.90
2023-01-09T21:36:21.567Z,20.45
2023-01-09T21:38:48.436Z,21.05
2023-01-09T21:41:36.628Z,19.48
2023-01-09T21:44:21.473Z,20.17
2023-01-09T21:46:57.489Z,21.05
2023-01-09T21:49:26.477Z,19.55
2023-01-09T21:51:54.014Z,23.25
2023-01-09T21:54:24.209Z,21.08
2023-01-09T21:56:51.495Z,19.98
2023-01-09T21:59:18.153Z,22.08
2023-01-09T22:01:45.250Z,21.58
2023-01-09T22:04:14.357Z,19.65
2023-01-09T22:06:40.743Z,19.05
2023-01-09T22:09:09.794Z,20.25
2023-01-09T22:11:37.570Z,20.42
2023-01-09T22:14:04.213Z,21.25
2023-01-09T22:16:30.796Z,20.02
2023-01-09T22:18:57.773Z,21.48
2023-01-09T22:21:25.579Z,19.65
2023-01-09T22:23:52.213Z,22.75
2023-01-09T22:26:18.952Z,19.77
2023-01-09T22:28:46.367Z,20.73
2023-01-09T22:31:20.416Z,18.98
2023-01-09T22:33:51.757Z,19.65
2023-01-09T22:36:18.925Z,19.15
2023-01-09T22:38:45.672Z,19.63
2023-01-09T22:41:12.530Z,18.50
2023-01-09T22:43:38.968Z,18.13
2023-01-09T22:46:09.721Z,18.95
2023-01-09T22:48:37.711Z,17.45
2023-01-09T22:51:16.296Z,16.70
2023-01-09T22:53:43.312Z,16.55
2023-01-09T22:56:12.547Z,17.13
2023-01-09T22:58:39.407Z,14.75
2023-01-09T23:01:06.220Z,14.70
2023-01-09T23:03:32.943Z,15.60
2023-01-09T23:06:04.752Z,15.60
2023-01-09T23:08:32.067Z,15.40
2023-01-09T23:10:58.896Z,17.77
2023-01-09T23:13:25.449Z,16.67
2023-01-09T23:15:52.076Z,16.90
2023-01-09T23:18:18.792Z,15.23
2023-01-09T23:20:57.189Z,16.33
2023-01-09T23:23:24.836Z,16.05
2023-01-09T23:25:53.343Z,16.42
2023-01-09T23:28:20.314Z,15.20
2023-01-09T23:30:47.364Z,16.77
2023-01-09T23:33:16.508Z,15.95
2023-01-09T23:35:44.019Z,18.40
2023-01-09T23:38:13.992Z,18.60
2023-01-09T23:40:41.587Z,16.27
2023-01-09T23:43:11.198Z,16.30
2023-01-09T23:45:43.158Z,16.42
2023-01-09T23:48:12.658Z,16.60
2023-01-09T23:50:42.149Z,15.30
2023-01-09T23:53:09.474Z,14.65
2023-01-09T23:55:36.731Z,15.57
2023-01-09T23:58:03.131Z,14.52
